createdAt,value
2022-12-27T00:00:18.124Z,96705.00
2022-12-27T00:04:22.675Z,96711.00
2022-12-27T00:08:57.263Z,96726.00
2022-12-27T00:13:07.640Z,96727.00
2022-12-27T00:17:13.609Z,96759.00
2022-12-27T00:21:49.237Z,96780.00
2022-12-27T00:25:52.263Z,96804.00
2022-12-27T00:30:28.924Z,96779.00
2022-12-27T00:34:31.999Z,96796.00
2022-12-27T00:39:15.672Z,96807.00
2022-12-27T00:43:20.123Z,96814.00
2022-12-27T00:47:23.458Z,96829.00
2022-12-27T00:52:01.246Z,96844.00
2022-12-27T00:56:14.386Z,96845.00
2022-12-27T01:00:50.457Z,96865.00
2022-12-27T01:04:55.164Z,96871.00
2022-12-27T01:08:58.856Z,96863.00
2022-12-27T01:13:35.192Z,96890.00
2022-12-27T01:17:50.049Z,96891.00
2022-12-27T01:21:57.371Z,96896.00
2022-12-27T01:26:29.847Z,96901.00
2022-12-27T01:30:33.304Z,96916.00
2022-12-27T01:34:39.031Z,96928.00
2022-12-27T01:38:48.175Z,96928.00
2022-12-27T01:43:21.768Z,96946.00
2022-12-27T01:47:46.755Z,96945.00
2022-12-27T01:52:08.205Z,96961.00
2022-12-27T01:56:19.593Z,96964.00
2022-12-27T02:00:47.877Z,96970.00
2022-12-27T02:04:53.798Z,96970.00
2022-12-27T02:09:03.686Z,96981.00
2022-12-27T02:13:37.354Z,97000.00
2022-12-27T02:17:42.285Z,97017.00
2022-12-27T02:22:17.357Z,97025.00
2022-12-27T02:27:00.754Z,97032.00
2022-12-27T02:31:12.450Z,97032.00
2022-12-27T02:35:18.260Z,97031.00
2022-12-27T02:39:52.915Z,97049.00
2022-12-27T02:44:14.027Z,97050.00
2022-12-27T02:48:36.004Z,97057.00
2022-12-27T02:53:08.399Z,97052.00
2022-12-27T02:57:33.827Z,97061.00
2022-12-27T03:02:03.806Z,97077.00
2022-12-27T03:06:45.451Z,97084.00
2022-12-27T03:11:11.103Z,97093.00
2022-12-27T03:15:44.818Z,97098.00
2022-12-27T03:20:12.076Z,97087.00
2022-12-27T03:24:42.137Z,97092.00
2022-12-27T03:29:05.158Z,97100.00
2022-12-27T03:33:14.097Z,97104.00
2022-12-27T03:37:49.435Z,97110.00
2022-12-27T03:42:15.973Z,97117.00
2022-12-27T03:46:37.674Z,97121.00
2022-12-27T03:50:50.244Z,97134.00
2022-12-27T03:54:57.175Z,97136.00
2022-12-27T03:59:03.618Z,97137.00
2022-12-27T04:03:09.707Z,97141.00
2022-12-27T04:07:16.819Z,97138.00
2022-12-27T04:11:40.029Z,97144.00
2022-12-27T04:16:02.226Z,97154.00
2022-12-27T04:20:23.166Z,97153.00
2022-12-27T04:24:43.900Z,97162.00
2022-12-27T04:29:04.582Z,97176.00
2022-12-27T04:33:26.883Z,97183.00
2022-12-27T04:37:32.733Z,97175.00
2022-12-27T04:41:53.737Z,97182.00
2022-12-27T04:46:17.986Z,97180.00
2022-12-27T04:50:46.694Z,97187.00
2022-12-27T04:55:07.984Z,97181.00
2022-12-27T04:59:28.554Z,97185.00
2022-12-27T05:03:31.968Z,97190.00
2022-12-27T05:07:57.554Z,97202.00
2022-12-27T05:12:14.504Z,97199.00
2022-12-27T05:16:20.306Z,97194.00
2022-12-27T05:20:23.448Z,97197.00
2022-12-27T05:24:47.487Z,97199.00
2022-12-27T05:28:53.878Z,97199.00
2022-12-27T05:33:01.605Z,97208.00
2022-12-27T05:37:07.616Z,97208.00
2022-12-27T05:41:17.468Z,97214.00
2022-12-27T05:45:23.610Z,97227.00
2022-12-27T05:49:31.354Z,97237.00
2022-12-27T05:53:39.692Z,97231.00
2022-12-27T05:57:44.284Z,97222.00
2022-12-27T06:01:47.499Z,97229.00
2022-12-27T06:05:53.640Z,97225.00
2022-12-27T06:09:59.592Z,97227.00
2022-12-27T06:14:06.713Z,97221.00
2022-12-27T06:18:10.170Z,97230.00
2022-12-27T06:22:13.537Z,97241.00
2022-12-27T06:26:19.793Z,97253.00
2022-12-27T06:30:32.883Z,97259.00
2022-12-27T06:34:40.190Z,97264.00
2022-12-27T06:38:43.663Z,97274.00
2022-12-27T06:42:46.745Z,97277.00
2022-12-27T06:46:51.308Z,97276.00
2022-12-27T06:50:54.716Z,97282.00
2022-12-27T06:54:57.803Z,97279.00
2022-12-27T06:59:02.257Z,97275.00
2022-12-27T07:03:12.325Z,97281.00
2022-12-27T07:07:19.684Z,97280.00
2022-12-27T07:11:23.585Z,97283.00
2022-12-27T07:15:26.924Z,97284.00
2022-12-27T07:19:33.702Z,97291.00
2022-12-27T07:23:37.695Z,97296.00
2022-12-27T07:27:40.856Z,97289.00
2022-12-27T07:31:48.899Z,97298.00
2022-12-27T07:36:04.233Z,97294.00
2022-12-27T07:40:10.596Z,97293.00
2022-12-27T07:44:14.044Z,97300.00
2022-12-27T07:48:21.671Z,97299.00
2022-12-27T07:52:27.143Z,97312.00
2022-12-27T07:56:30.998Z,97312.00
2022-12-27T08:00:36.472Z,97321.00
2022-12-27T08:04:42.546Z,97319.00
2022-12-27T08:08:48.919Z,97324.00
2022-12-27T08:12:51.928Z,97331.00
2022-12-27T08:16:55.160Z,97333.00
2022-12-27T08:20:58.425Z,97323.00
2022-12-27T08:25:03.491Z,97330.00
2022-12-27T08:29:06.826Z,97326.00
2022-12-27T08:33:12.456Z,97337.00
2022-12-27T08:37:18.444Z,97346.00
2022-12-27T08:41:23.230Z,97348.00
2022-12-27T08:46:01.446Z,97356.00
2022-12-27T08:50:07.494Z,97365.00
2022-12-27T08:54:10.815Z,97357.00
2022-12-27T08:58:51.904Z,97355.00
2022-12-27T09:03:49.728Z,97363.00
2022-12-27T09:08:26.663Z,97375.00
2022-12-27T09:13:03.726Z,97374.00
2022-12-27T09:17:47.674Z,97378.00
2022-12-27T09:22:15.284Z,97384.00
2022-12-27T09:26:52.489Z,97373.00
2022-12-27T09:31:32.487Z,97370.00
2022-12-27T09:35:39.024Z,97377.00
2022-12-27T09:39:42.008Z,97378.00
2022-12-27T09:43:57.063Z,97367.00
2022-12-27T09:48:31.025Z,97367.00
2022-12-27T09:53:01.550Z,97356.00
2022-12-27T09:57:37.208Z,97354.00
2022-12-27T10:02:07.849Z,97361.00
2022-12-27T10:06:48.252Z,97362.00
2022-12-27T10:11:42.254Z,97358.00
2022-12-27T10:16:13.757Z,97370.00
2022-12-27T10:20:51.821Z,97362.00
2022-12-27T10:25:18.793Z,97363.00
2022-12-27T10:29:49.500Z,97367.00
2022-12-27T10:33:53.676Z,97358.00
2022-12-27T10:38:34.783Z,97354.00
2022-12-27T10:43:05.163Z,97352.00
2022-12-27T10:47:42.292Z,97350.00
2022-12-27T10:52:21.557Z,97352.00
2022-12-27T10:56:29.292Z,97343.00
2022-12-27T11:00:32.392Z,97333.00
2022-12-27T11:04:38.316Z,97334.00
2022-12-27T11:09:18.193Z,97330.00
2022-12-27T11:13:22.885Z,97334.00
2022-12-27T11:17:39.715Z,97336.00
2022-12-27T11:22:08.648Z,97346.00
2022-12-27T11:26:42.687Z,97334.00
2022-12-27T11:31:16.532Z,97329.00
2022-12-27T11:35:54.277Z,97325.00
2022-12-27T11:40:19.169Z,97316.00
2022-12-27T11:44:37.961Z,97308.00
2022-12-27T11:49:13.234Z,97302.00
2022-12-27T11:54:04.938Z,97307.00
2022-12-27T11:58:39.748Z,97313.00
2022-12-27T12:03:27.263Z,97311.00
2022-12-27T12:08:13.699Z,97315.00
2022-12-27T12:13:02.064Z,97319.00
2022-12-27T12:17:47.781Z,97307.00
2022-12-27T12:22:17.972Z,97317.00
2022-12-27T12:26:56.072Z,97309.00
2022-12-27T12:31:29.605Z,97312.00
2022-12-27T12:35:54.433Z,97304.00
2022-12-27T12:40:25.071Z,97300.00
2022-12-27T12:44:55.901Z,97299.00
2022-12-27T12:49:21.597Z,97293.00
2022-12-27T12:53:39.822Z,97285.00
2022-12-27T12:58:16.443Z,97292.00
2022-12-27T13:02:39.763Z,97286.00
2022-12-27T13:07:39.806Z,97287.00
2022-12-27T13:12:23.297Z,97285.00
2022-12-27T13:16:55.118Z,97277.00
2022-12-27T13:21:38.772Z,97285.00
2022-12-27T13:25:49.211Z,97290.00
2022-12-27T13:30:24.243Z,97290.00
2022-12-27T13:34:46.050Z,97287.00
2022-12-27T13:39:09.625Z,97290.00
2022-12-27T13:44:03.732Z,97287.00
2022-12-27T13:48:21.712Z,97287.00
2022-12-27T13:52:59.276Z,97273.00
2022-12-27T13:57:18.946Z,97274.00
2022-12-27T14:01:45.366Z,97294.00
2022-12-27T14:06:22.334Z,97282.00
2022-12-27T14:10:40.191Z,97297.00
2022-12-27T14:14:48.815Z,97296.00
2022-12-27T14:19:20.047Z,97316.00
2022-12-27T14:23:55.540Z,97312.00
2022-12-27T14:28:38.099Z,97314.00
2022-12-27T14:33:43.377Z,97316.00
2022-12-27T14:38:29.965Z,97315.00
2022-12-27T14:43:23.297Z,97322.00
2022-12-27T14:48:11.281Z,97318.00
2022-12-27T14:52:43.240Z,97312.00
2022-12-27T14:56:57.026Z,97311.00
2022-12-27T15:01:31.331Z,97312.00
2022-12-27T15:05:55.294Z,97310.00
2022-12-27T15:10:05.912Z,97298.00
2022-12-27T15:14:43.685Z,97308.00
2022-12-27T15:19:11.727Z,97315.00
2022-12-27T15:23:26.222Z,97309.00
2022-12-27T15:27:35.037Z,97312.00
2022-12-27T15:31:51.513Z,97318.00
2022-12-27T15:36:14.709Z,97312.00
2022-12-27T15:40:39.340Z,97312.00
2022-12-27T15:44:51.997Z,97318.00
2022-12-27T15:49:29.167Z,97314.00
2022-12-27T15:54:23.805Z,97315.00
2022-12-27T15:58:27.925Z,97304.00
2022-12-27T16:02:39.989Z,97297.00
2022-12-27T16:07:00.614Z,97294.00
2022-12-27T16:11:42.124Z,97307.00
2022-12-27T16:15:52.881Z,97303.00
2022-12-27T16:20:22.588Z,97291.00
2022-12-27T16:24:56.893Z,97300.00
2022-12-27T16:29:48.295Z,97305.00
2022-12-27T16:34:15.965Z,97297.00
2022-12-27T16:38:48.708Z,97295.00
2022-12-27T16:43:33.188Z,97294.00
2022-12-27T16:48:17.705Z,97293.00
2022-12-27T16:52:52.270Z,97289.00
2022-12-27T16:57:34.851Z,97285.00
2022-12-27T17:02:06.385Z,97298.00
2022-12-27T17:07:04.528Z,97297.00
2022-12-27T17:11:44.297Z,97301.00
2022-12-27T17:16:22.509Z,97293.00
2022-12-27T17:20:55.946Z,97296.00
2022-12-27T17:25:38.894Z,97295.00
2022-12-27T17:30:16.820Z,97299.00
2022-12-27T17:34:50.303Z,97299.00
2022-12-27T17:39:28.926Z,97303.00
2022-12-27T17:44:20.517Z,97301.00
2022-12-27T17:48:34.525Z,97306.00
2022-12-27T17:53:40.514Z,97293.00
2022-12-27T17:57:57.509Z,97281.00
2022-12-27T18:02:27.623Z,97274.00
2022-12-27T18:07:25.477Z,97265.00
2022-12-27T18:12:02.733Z,97261.00
2022-12-27T18:16:41.273Z,97259.00
2022-12-27T18:21:22.366Z,97254.00
2022-12-27T18:25:54.885Z,97254.00
2022-12-27T18:30:30.306Z,97261.00
2022-12-27T18:35:06.363Z,97262.00
2022-12-27T18:39:48.082Z,97258.00
2022-12-27T18:44:26.815Z,97257.00
2022-12-27T18:49:01.807Z,97240.00
2022-12-27T18:53:35.648Z,97232.00
2022-12-27T18:57:39.302Z,97220.00
2022-12-27T19:01:47.040Z,97221.00
2022-12-27T19:06:20.950Z,97222.00
2022-12-27T19:11:00.265Z,97231.00
2022-12-27T19:15:41.677Z,97215.00
2022-12-27T19:20:10.388Z,97228.00
2022-12-27T19:25:08.126Z,97227.00
2022-12-27T19:29:56.219Z,97220.00
2022-12-27T19:34:21.667Z,97215.00
2022-12-27T19:39:00.935Z,97206.00
2022-12-27T19:43:40.723Z,97200.00
2022-12-27T19:48:15.760Z,97195.00
2022-12-27T19:52:50.783Z,97196.00
2022-12-27T19:57:27.866Z,97197.00
2022-12-27T20:01:59.551Z,97198.00
2022-12-27T20:06:39.688Z,97202.00
2022-12-27T20:11:17.811Z,97207.00
2022-12-27T20:15:59.175Z,97203.00
2022-12-27T20:20:28.946Z,97199.00
2022-12-27T20:24:35.227Z,97208.00
2022-12-27T20:29:09.544Z,97204.00
2022-12-27T20:33:43.657Z,97200.00
2022-12-27T20:38:20.331Z,97197.00
2022-12-27T20:42:56.729Z,97195.00
2022-12-27T20:47:35.930Z,97188.00
2022-12-27T20:52:10.225Z,97181.00
2022-12-27T20:56:46.992Z,97182.00
2022-12-27T21:01:25.268Z,97173.00
2022-12-27T21:06:05.360Z,97176.00
2022-12-27T21:10:38.503Z,97163.00
2022-12-27T21:15:17.447Z,97178.00
2022-12-27T21:19:51.816Z,97173.00
2022-12-27T21:24:04.047Z,97178.00
2022-12-27T21:28:38.374Z,97166.00
2022-12-27T21:33:12.020Z,97167.00
2022-12-27T21:37:51.166Z,97163.00
2022-12-27T21:42:26.764Z,97158.00
2022-12-27T21:47:03.593Z,97161.00
2022-12-27T21:51:38.084Z,97146.00
2022-12-27T21:56:14.759Z,97156.00
2022-12-27T22:00:57.689Z,97151.00
2022-12-27T22:05:04.282Z,97139.00
2022-12-27T22:09:09.867Z,97140.00
2022-12-27T22:13:48.804Z,97143.00
2022-12-27T22:17:51.981Z,97148.00
2022-12-27T22:21:57.713Z,97154.00
2022-12-27T22:26:01.191Z,97153.00
2022-12-27T22:30:39.225Z,97153.00
2022-12-27T22:35:17.122Z,97147.00
2022-12-27T22:39:24.132Z,97138.00
2022-12-27T22:43:58.275Z,97126.00
2022-12-27T22:48:31.967Z,97107.00
2022-12-27T22:52:35.122Z,97109.00
2022-12-27T22:57:18.236Z,97103.00
2022-12-27T23:01:48.933Z,97118.00
2022-12-27T23:06:26.417Z,97117.00
2022-12-27T23:10:29.448Z,97110.00
2022-12-27T23:15:08.560Z,97102.00
2022-12-27T23:19:42.362Z,97104.00
2022-12-27T23:23:48.738Z,97102.00
2022-12-27T23:27:51.811Z,97104.00
2022-12-27T23:31:57.552Z,97091.00
2022-12-27T23:36:00.781Z,97094.00
2022-12-27T23:40:09.014Z,97080.00
2022-12-27T23:44:39.659Z,97081.00
2022-12-27T23:48:55.502Z,97071.00
2022-12-27T23:53:19.902Z,97074.00
2022-12-27T23:57:24.869Z,97068.00
